sensor_id;sensor_type;location;lat;lon;timestamp;temperature;humidity
12720;DHT22;6424;48.520;11.228;2023-11-18T00:01:21;4.50;99.90
12720;DHT22;6424;48.520;11.228;2023-11-18T00:04:05;4.50;99.90
12720;DHT22;6424;48.520;11.228;2023-11-18T00:06:53;4.50;99.90
12720;DHT22;6424;48.520;11.228;2023-11-18T00:09:39;4.50;99.90
12720;DHT22;6424;48.520;11.228;2023-11-18T00:12:23;4.50;99.90
12720;DHT22;6424;48.520;11.228;2023-11-18T00:15:08;4.40;99.90
12720;DHT22;6424;48.520;11.228;2023-11-18T00:17:54;4.40;99.90
12720;DHT22;6424;48.520;11.228;2023-11-18T00:20:38;4.40;99.90
12720;DHT22;6424;48.520;11.228;2023-11-18T00:23:22;4.40;99.90
12720;DHT22;6424;48.520;11.228;2023-11-18T00:26:07;4.40;99.90
12720;DHT22;6424;48.520;11.228;2023-11-18T00:28:52;4.30;99.90
12720;DHT22;6424;48.520;11.228;2023-11-18T00:31:37;4.40;99.90
12720;DHT22;6424;48.520;11.228;2023-11-18T00:34:21;4.40;99.90
12720;DHT22;6424;48.520;11.228;2023-11-18T00:37:05;4.40;99.90
12720;DHT22;6424;48.520;11.228;2023-11-18T00:39:49;4.30;99.90
12720;DHT22;6424;48.520;11.228;2023-11-18T00:42:34;4.40;99.90
12720;DHT22;6424;48.520;11.228;2023-11-18T00:45:19;4.40;99.90
12720;DHT22;6424;48.520;11.228;2023-11-18T00:48:03;4.30;99.90
12720;DHT22;6424;48.520;11.228;2023-11-18T00:50:49;4.30;99.90
12720;DHT22;6424;48.520;11.228;2023-11-18T00:53:33;4.30;99.90
12720;DHT22;6424;48.520;11.228;2023-11-18T00:56:17;4.30;99.90
12720;DHT22;6424;48.520;11.228;2023-11-18T00:59:02;4.30;99.90
12720;DHT22;6424;48.520;11.228;2023-11-18T01:01:47;4.30;99.90
12720;DHT22;6424;48.520;11.228;2023-11-18T01:04:32;4.30;99.90
12720;DHT22;6424;48.520;11.228;2023-11-18T01:07:17;4.30;99.90
12720;DHT22;6424;48.520;11.228;2023-11-18T01:10:01;4.30;99.90
12720;DHT22;6424;48.520;11.228;2023-11-18T01:12:47;4.30;99.90
12720;DHT22;6424;48.520;11.228;2023-11-18T01:15:31;4.30;99.90
12720;DHT22;6424;48.520;11.228;2023-11-18T01:18:16;4.30;99.90
12720;DHT22;6424;48.520;11.228;2023-11-18T01:21:01;4.30;99.90
12720;DHT22;6424;48.520;11.228;2023-11-18T01:23:46;4.30;99.90
12720;DHT22;6424;48.520;11.228;2023-11-18T01:26:31;4.30;99.90
12720;DHT22;6424;48.520;11.228;2023-11-18T01:29:15;4.30;99.90
12720;DHT22;6424;48.520;11.228;2023-11-18T01:31:59;4.30;99.90
12720;DHT22;6424;48.520;11.228;2023-11-18T01:34:43;4.30;99.90
12720;DHT22;6424;48.520;11.228;2023-11-18T01:37:34;4.30;99.90
12720;DHT22;6424;48.520;11.228;2023-11-18T01:40:18;4.30;99.90
12720;DHT22;6424;48.520;11.228;2023-11-18T01:43:03;4.30;99.90
12720;DHT22;6424;48.520;11.228;2023-11-18T01:45:55;4.20;99.90
12720;DHT22;6424;48.520;11.228;2023-11-18T01:48:41;4.20;99.90
12720;DHT22;6424;48.520;11.228;2023-11-18T01:51:26;4.20;99.90
12720;DHT22;6424;48.520;11.228;2023-11-18T01:54:11;4.10;99.90
12720;DHT22;6424;48.520;11.228;2023-11-18T01:56:59;4.10;99.90
12720;DHT22;6424;48.520;11.228;2023-11-18T01:59:46;4.10;99.90
12720;DHT22;6424;48.520;11.228;2023-11-18T02:02:31;4.00;99.90
12720;DHT22;6424;48.520;11.228;2023-11-18T02:05:17;3.90;99.90
12720;DHT22;6424;48.520;11.228;2023-11-18T02:08:02;4.00;99.90
12720;DHT22;6424;48.520;11.228;2023-11-18T02:10:57;3.90;99.90
12720;DHT22;6424;48.520;11.228;2023-11-18T02:13:48;3.90;99.90
12720;DHT22;6424;48.520;11.228;2023-11-18T02:16:33;3.80;99.90
12720;DHT22;6424;48.520;11.228;2023-11-18T02:19:23;3.70;99.90
12720;DHT22;6424;48.520;11.228;2023-11-18T02:22:08;3.70;99.90
12720;DHT22;6424;48.520;11.228;2023-11-18T02:24:55;3.70;99.90
12720;DHT22;6424;48.520;11.228;2023-11-18T02:27:39;3.70;99.90
12720;DHT22;6424;48.520;11.228;2023-11-18T02:30:24;3.60;99.90
12720;DHT22;6424;48.520;11.228;2023-11-18T02:33:22;3.60;99.90
12720;DHT22;6424;48.520;11.228;2023-11-18T02:36:20;3.60;99.90
12720;DHT22;6424;48.520;11.228;2023-11-18T02:39:14;3.50;99.90
12720;DHT22;6424;48.520;11.228;2023-11-18T02:42:02;3.50;99.90
12720;DHT22;6424;48.520;11.228;2023-11-18T02:44:48;3.50;99.90
12720;DHT22;6424;48.520;11.228;2023-11-18T02:47:34;3.40;99.90
12720;DHT22;6424;48.520;11.228;2023-11-18T02:50:18;3.40;99.90
12720;DHT22;6424;48.520;11.228;2023-11-18T02:53:03;3.40;99.90
12720;DHT22;6424;48.520;11.228;2023-11-18T02:55:47;3.40;99.90
12720;DHT22;6424;48.520;11.228;2023-11-18T02:58:31;3.40;99.90
12720;DHT22;6424;48.520;11.228;2023-11-18T03:01:17;3.40;99.90
12720;DHT22;6424;48.520;11.228;2023-11-18T03:04:03;3.40;99.90
12720;DHT22;6424;48.520;11.228;2023-11-18T03:06:49;3.40;99.90
12720;DHT22;6424;48.520;11.228;2023-11-18T03:09:34;3.40;99.90
12720;DHT22;6424;48.520;11.228;2023-11-18T03:12:19;3.40;99.90
12720;DHT22;6424;48.520;11.228;2023-11-18T03:15:05;3.50;99.90
12720;DHT22;6424;48.520;11.228;2023-11-18T03:17:50;3.50;99.90
12720;DHT22;6424;48.520;11.228;2023-11-18T03:20:34;3.50;99.90
12720;DHT22;6424;48.520;11.228;2023-11-18T03:23:18;3.50;99.90
12720;DHT22;6424;48.520;11.228;2023-11-18T03:26:03;3.60;99.90
12720;DHT22;6424;48.520;11.228;2023-11-18T03:28:47;3.60;99.90
12720;DHT22;6424;48.520;11.228;2023-11-18T03:31:32;3.60;99.90
12720;DHT22;6424;48.520;11.228;2023-11-18T03:34:16;3.60;99.90
12720;DHT22;6424;48.520;11.228;2023-11-18T03:37:01;3.60;99.90
12720;DHT22;6424;48.520;11.228;2023-11-18T03:39:45;3.60;99.90
12720;DHT22;6424;48.520;11.228;2023-11-18T03:42:29;3.60;99.90
12720;DHT22;6424;48.520;11.228;2023-11-18T03:45:14;3.60;99.90
12720;DHT22;6424;48.520;11.228;2023-11-18T03:48:02;3.60;99.90
12720;DHT22;6424;48.520;11.228;2023-11-18T03:50:47;3.60;99.90
12720;DHT22;6424;48.520;11.228;2023-11-18T03:53:31;3.60;99.90
12720;DHT22;6424;48.520;11.228;2023-11-18T03:56:18;3.60;99.90
12720;DHT22;6424;48.520;11.228;2023-11-18T03:59:02;3.60;99.90
12720;DHT22;6424;48.520;11.228;2023-11-18T04:01:48;3.60;99.90
12720;DHT22;6424;48.520;11.228;2023-11-18T04:04:34;3.60;99.90
12720;DHT22;6424;48.520;11.228;2023-11-18T04:07:19;3.60;99.90
12720;DHT22;6424;48.520;11.228;2023-11-18T04:10:03;3.60;99.90
12720;DHT22;6424;48.520;11.228;2023-11-18T04:12:50;3.60;99.90
12720;DHT22;6424;48.520;11.228;2023-11-18T04:15:35;3.60;99.90
12720;DHT22;6424;48.520;11.228;2023-11-18T04:18:19;3.60;99.90
12720;DHT22;6424;48.520;11.228;2023-11-18T04:21:04;3.60;99.90
12720;DHT22;6424;48.520;11.228;2023-11-18T04:23:48;3.60;99.90
12720;DHT22;6424;48.520;11.228;2023-11-18T04:26:32;3.60;99.90
12720;DHT22;6424;48.520;11.228;2023-11-18T04:29:17;3.60;99.90
12720;DHT22;6424;48.520;11.228;2023-11-18T04:32:02;3.60;99.90
12720;DHT22;6424;48.520;11.228;2023-11-18T04:34:46;3.60;99.90
12720;DHT22;6424;48.520;11.228;2023-11-18T04:37:31;3.60;99.90
12720;DHT22;6424;48.520;11.228;2023-11-18T04:40:15;3.70;99.90
12720;DHT22;6424;48.520;11.228;2023-11-18T04:43:00;3.70;99.90
12720;DHT22;6424;48.520;11.228;2023-11-18T04:45:44;3.70;99.90
12720;DHT22;6424;48.520;11.228;2023-11-18T04:48:29;3.70;99.90
12720;DHT22;6424;48.520;11.228;2023-11-18T04:51:13;3.70;99.90
12720;DHT22;6424;48.520;11.228;2023-11-18T04:53:57;3.70;99.90
12720;DHT22;6424;48.520;11.228;2023-11-18T04:56:41;3.70;99.90
12720;DHT22;6424;48.520;11.228;2023-11-18T04:59:26;3.80;99.90
12720;DHT22;6424;48.520;11.228;2023-11-18T05:02:10;3.80;99.90
12720;DHT22;6424;48.520;11.228;2023-11-18T05:04:54;3.80;99.90
12720;DHT22;6424;48.520;11.228;2023-11-18T05:07:39;3.80;99.90
12720;DHT22;6424;48.520;11.228;2023-11-18T05:10:24;3.70;99.90
12720;DHT22;6424;48.520;11.228;2023-11-18T05:13:08;3.70;99.90
12720;DHT22;6424;48.520;11.228;2023-11-18T05:15:53;3.70;99.90
12720;DHT22;6424;48.520;11.228;2023-11-18T05:18:38;3.70;99.90
12720;DHT22;6424;48.520;11.228;2023-11-18T05:21:23;3.70;99.90
12720;DHT22;6424;48.520;11.228;2023-11-18T05:24:08;3.70;99.90
12720;DHT22;6424;48.520;11.228;2023-11-18T05:26:53;3.70;99.90
12720;DHT22;6424;48.520;11.228;2023-11-18T05:29:37;3.70;99.90
12720;DHT22;6424;48.520;11.228;2023-11-18T05:32:22;3.70;99.90
12720;DHT22;6424;48.520;11.228;2023-11-18T05:35:09;3.70;99.90
12720;DHT22;6424;48.520;11.228;2023-11-18T05:37:55;3.70;99.90
12720;DHT22;6424;48.520;11.228;2023-11-18T05:40:40;3.70;99.90
12720;DHT22;6424;48.520;11.228;2023-11-18T05:43:30;3.70;99.90
12720;DHT22;6424;48.520;11.228;2023-11-18T05:46:20;3.70;99.90
12720;DHT22;6424;48.520;11.228;2023-11-18T05:49:06;3.70;99.90
12720;DHT22;6424;48.520;11.228;2023-11-18T05:51:52;3.70;99.90
12720;DHT22;6424;48.520;11.228;2023-11-18T05:54:36;3.70;99.90
12720;DHT22;6424;48.520;11.228;2023-11-18T05:57:20;3.80;99.90
12720;DHT22;6424;48.520;11.228;2023-11-18T06:00:06;3.80;99.90
12720;DHT22;6424;48.520;11.228;2023-11-18T06:02:51;3.80;99.90
12720;DHT22;6424;48.520;11.228;2023-11-18T06:05:35;3.80;99.90
12720;DHT22;6424;48.520;11.228;2023-11-18T06:08:19;3.80;99.90
12720;DHT22;6424;48.520;11.228;2023-11-18T06:11:11;3.90;99.90
12720;DHT22;6424;48.520;11.228;2023-11-18T06:13:58;3.90;99.90
12720;DHT22;6424;48.520;11.228;2023-11-18T06:16:43;3.90;99.90
12720;DHT22;6424;48.520;11.228;2023-11-18T06:19:27;3.90;99.90
12720;DHT22;6424;48.520;11.228;2023-11-18T06:22:12;3.90;99.90
12720;DHT22;6424;48.520;11.228;2023-11-18T06:24:56;3.90;99.90
12720;DHT22;6424;48.520;11.228;2023-11-18T06:27:43;4.00;99.90
12720;DHT22;6424;48.520;11.228;2023-11-18T06:30:29;3.90;99.90
12720;DHT22;6424;48.520;11.228;2023-11-18T06:33:14;3.90;99.90
12720;DHT22;6424;48.520;11.228;2023-11-18T06:35:58;3.90;99.90
12720;DHT22;6424;48.520;11.228;2023-11-18T06:38:46;4.00;99.90
12720;DHT22;6424;48.520;11.228;2023-11-18T06:41:30;3.90;99.90
12720;DHT22;6424;48.520;11.228;2023-11-18T06:44:17;3.90;99.90
12720;DHT22;6424;48.520;11.228;2023-11-18T06:47:07;3.90;99.90
12720;DHT22;6424;48.520;11.228;2023-11-18T06:49:51;3.90;99.90
12720;DHT22;6424;48.520;11.228;2023-11-18T06:52:37;3.90;99.90
12720;DHT22;6424;48.520;11.228;2023-11-18T06:55:22;4.00;99.90
12720;DHT22;6424;48.520;11.228;2023-11-18T06:58:06;4.00;99.90
12720;DHT22;6424;48.520;11.228;2023-11-18T07:00:51;4.00;99.90
12720;DHT22;6424;48.520;11.228;2023-11-18T07:03:36;4.10;99.90
12720;DHT22;6424;48.520;11.228;2023-11-18T07:06:20;4.10;99.90
12720;DHT22;6424;48.520;11.228;2023-11-18T07:09:10;4.10;99.90
12720;DHT22;6424;48.520;11.228;2023-11-18T07:12:01;4.10;99.90
12720;DHT22;6424;48.520;11.228;2023-11-18T07:14:48;4.10;99.90
12720;DHT22;6424;48.520;11.228;2023-11-18T07:17:32;4.10;99.90
12720;DHT22;6424;48.520;11.228;2023-11-18T07:20:18;4.20;99.90
12720;DHT22;6424;48.520;11.228;2023-11-18T07:23:02;4.20;99.90
12720;DHT22;6424;48.520;11.228;2023-11-18T07:25:47;4.20;99.90
12720;DHT22;6424;48.520;11.228;2023-11-18T07:28:32;4.20;99.90
12720;DHT22;6424;48.520;11.228;2023-11-18T07:31:16;4.20;99.90
12720;DHT22;6424;48.520;11.228;2023-11-18T07:34:05;4.30;99.90
12720;DHT22;6424;48.520;11.228;2023-11-18T07:36:49;4.30;99.90
12720;DHT22;6424;48.520;11.228;2023-11-18T07:39:35;4.30;99.90
12720;DHT22;6424;48.520;11.228;2023-11-18T07:42:28;4.40;99.90
12720;DHT22;6424;48.520;11.228;2023-11-18T07:45:13;4.40;99.90
12720;DHT22;6424;48.520;11.228;2023-11-18T07:48:01;4.40;99.90
12720;DHT22;6424;48.520;11.228;2023-11-18T07:50:50;4.40;99.90
12720;DHT22;6424;48.520;11.228;2023-11-18T07:53:34;4.50;99.90
12720;DHT22;6424;48.520;11.228;2023-11-18T07:56:21;4.50;99.90
12720;DHT22;6424;48.520;11.228;2023-11-18T07:59:07;4.60;99.90
12720;DHT22;6424;48.520;11.228;2023-11-18T08:01:52;4.60;99.90
12720;DHT22;6424;48.520;11.228;2023-11-18T08:04:38;4.70;99.90
12720;DHT22;6424;48.520;11.228;2023-11-18T08:07:22;4.70;99.90
12720;DHT22;6424;48.520;11.228;2023-11-18T08:10:07;4.80;99.90
12720;DHT22;6424;48.520;11.228;2023-11-18T08:12:57;4.80;99.90
12720;DHT22;6424;48.520;11.228;2023-11-18T08:15:42;4.80;99.90
12720;DHT22;6424;48.520;11.228;2023-11-18T08:18:26;4.90;99.90
12720;DHT22;6424;48.520;11.228;2023-11-18T08:21:12;4.90;99.90
12720;DHT22;6424;48.520;11.228;2023-11-18T08:23:56;4.90;99.90
12720;DHT22;6424;48.520;11.228;2023-11-18T08:26:46;4.90;99.90
12720;DHT22;6424;48.520;11.228;2023-11-18T08:29:32;5.00;99.90
12720;DHT22;6424;48.520;11.228;2023-11-18T08:32:17;5.00;99.90
12720;DHT22;6424;48.520;11.228;2023-11-18T08:35:01;5.00;99.90
12720;DHT22;6424;48.520;11.228;2023-11-18T08:37:46;5.00;99.90
12720;DHT22;6424;48.520;11.228;2023-11-18T08:40:31;5.10;99.90
12720;DHT22;6424;48.520;11.228;2023-11-18T08:43:15;5.10;99.90
12720;DHT22;6424;48.520;11.228;2023-11-18T08:46:00;5.20;99.90
12720;DHT22;6424;48.520;11.228;2023-11-18T08:48:46;5.20;99.90
12720;DHT22;6424;48.520;11.228;2023-11-18T08:51:32;5.20;99.90
12720;DHT22;6424;48.520;11.228;2023-11-18T08:54:18;5.20;99.90
12720;DHT22;6424;48.520;11.228;2023-11-18T08:57:20;5.30;99.90
12720;DHT22;6424;48.520;11.228;2023-11-18T09:00:09;5.30;99.90
12720;DHT22;6424;48.520;11.228;2023-11-18T09:03:14;5.40;99.90
12720;DHT22;6424;48.520;11.228;2023-11-18T09:06:05;5.50;99.90
12720;DHT22;6424;48.520;11.228;2023-11-18T09:08:50;5.60;99.90
12720;DHT22;6424;48.520;11.228;2023-11-18T09:11:38;5.60;99.90
12720;DHT22;6424;48.520;11.228;2023-11-18T09:14:25;5.60;99.90
12720;DHT22;6424;48.520;11.228;2023-11-18T09:17:09;5.80;99.90
12720;DHT22;6424;48.520;11.228;2023-11-18T09:19:54;5.90;99.90
12720;DHT22;6424;48.520;11.228;2023-11-18T09:22:39;6.00;99.90
12720;DHT22;6424;48.520;11.228;2023-11-18T09:25:23;6.20;99.90
12720;DHT22;6424;48.520;11.228;2023-11-18T09:28:08;6.30;99.90
12720;DHT22;6424;48.520;11.228;2023-11-18T09:30:54;6.30;99.90
12720;DHT22;6424;48.520;11.228;2023-11-18T09:33:42;6.40;99.90
12720;DHT22;6424;48.520;11.228;2023-11-18T09:36:36;6.40;99.90
12720;DHT22;6424;48.520;11.228;2023-11-18T09:39:20;6.50;99.90
12720;DHT22;6424;48.520;11.228;2023-11-18T09:42:21;6.60;99.90
12720;DHT22;6424;48.520;11.228;2023-11-18T09:45:08;6.60;99.90
12720;DHT22;6424;48.520;11.228;2023-11-18T09:47:59;6.60;99.90
12720;DHT22;6424;48.520;11.228;2023-11-18T09:50:47;6.60;99.90
12720;DHT22;6424;48.520;11.228;2023-11-18T09:53:37;6.70;99.90
12720;DHT22;6424;48.520;11.228;2023-11-18T09:56:30;6.70;99.90
12720;DHT22;6424;48.520;11.228;2023-11-18T10:02:29;6.80;99.90
12720;DHT22;6424;48.520;11.228;2023-11-18T10:05:15;6.90;99.90
12720;DHT22;6424;48.520;11.228;2023-11-18T10:07:59;7.00;99.90
12720;DHT22;6424;48.520;11.228;2023-11-18T10:10:45;7.10;99.90
12720;DHT22;6424;48.520;11.228;2023-11-18T10:13:32;7.20;99.90
12720;DHT22;6424;48.520;11.228;2023-11-18T10:16:18;7.30;99.90
12720;DHT22;6424;48.520;11.228;2023-11-18T10:19:03;7.40;99.90
12720;DHT22;6424;48.520;11.228;2023-11-18T10:21:52;7.50;99.90
12720;DHT22;6424;48.520;11.228;2023-11-18T10:24:46;7.60;99.90
12720;DHT22;6424;48.520;11.228;2023-11-18T10:27:30;7.60;99.90
12720;DHT22;6424;48.520;11.228;2023-11-18T10:30:15;7.60;99.90
12720;DHT22;6424;48.520;11.228;2023-11-18T10:33:03;7.60;99.90
12720;DHT22;6424;48.520;11.228;2023-11-18T10:35:50;7.50;99.90
12720;DHT22;6424;48.520;11.228;2023-11-18T10:38:39;7.50;99.90
12720;DHT22;6424;48.520;11.228;2023-11-18T10:41:40;7.40;99.90
12720;DHT22;6424;48.520;11.228;2023-11-18T10:44:27;7.50;99.90
12720;DHT22;6424;48.520;11.228;2023-11-18T10:47:13;7.40;99.90
12720;DHT22;6424;48.520;11.228;2023-11-18T10:49:58;7.50;99.90
12720;DHT22;6424;48.520;11.228;2023-11-18T10:52:43;7.60;99.90
12720;DHT22;6424;48.520;11.228;2023-11-18T10:55:39;7.60;99.90
12720;DHT22;6424;48.520;11.228;2023-11-18T10:58:25;7.80;99.90
12720;DHT22;6424;48.520;11.228;2023-11-18T11:01:29;7.90;99.90
12720;DHT22;6424;48.520;11.228;2023-11-18T11:04:14;8.10;99.90
12720;DHT22;6424;48.520;11.228;2023-11-18T11:07:01;8.20;99.90
12720;DHT22;6424;48.520;11.228;2023-11-18T11:09:45;8.30;99.90
12720;DHT22;6424;48.520;11.228;2023-11-18T11:12:35;8.30;99.90
12720;DHT22;6424;48.520;11.228;2023-11-18T11:15:28;8.20;99.90
12720;DHT22;6424;48.520;11.228;2023-11-18T11:18:13;8.20;99.90
12720;DHT22;6424;48.520;11.228;2023-11-18T11:21:14;8.10;99.90
12720;DHT22;6424;48.520;11.228;2023-11-18T11:24:11;8.20;99.90
12720;DHT22;6424;48.520;11.228;2023-11-18T11:27:22;8.20;99.90
12720;DHT22;6424;48.520;11.228;2023-11-18T11:30:22;8.10;99.90
12720;DHT22;6424;48.520;11.228;2023-11-18T11:36:02;8.30;99.90
12720;DHT22;6424;48.520;11.228;2023-11-18T11:38:48;8.30;99.90
12720;DHT22;6424;48.520;11.228;2023-11-18T11:41:35;8.30;99.90
12720;DHT22;6424;48.520;11.228;2023-11-18T11:44:21;8.40;99.90
12720;DHT22;6424;48.520;11.228;2023-11-18T11:47:05;8.50;99.90
12720;DHT22;6424;48.520;11.228;2023-11-18T11:50:00;8.40;99.90
12720;DHT22;6424;48.520;11.228;2023-11-18T11:53:03;8.40;99.90
12720;DHT22;6424;48.520;11.228;2023-11-18T11:55:53;8.40;99.90
12720;DHT22;6424;48.520;11.228;2023-11-18T11:58:37;8.30;99.90
12720;DHT22;6424;48.520;11.228;2023-11-18T12:01:26;8.20;99.90
12720;DHT22;6424;48.520;11.228;2023-11-18T12:04:16;8.20;99.90
12720;DHT22;6424;48.520;11.228;2023-11-18T12:07:12;8.10;99.90
12720;DHT22;6424;48.520;11.228;2023-11-18T12:10:00;8.10;99.90
12720;DHT22;6424;48.520;11.228;2023-11-18T12:12:45;8.10;99.90
12720;DHT22;6424;48.520;11.228;2023-11-18T12:15:49;8.10;99.90
12720;DHT22;6424;48.520;11.228;2023-11-18T12:22:21;7.90;99.90
12720;DHT22;6424;48.520;11.228;2023-11-18T12:28:07;7.90;99.90
12720;DHT22;6424;48.520;11.228;2023-11-18T12:30:52;7.90;99.90
12720;DHT22;6424;48.520;11.228;2023-11-18T12:36:56;8.00;99.90
12720;DHT22;6424;48.520;11.228;2023-11-18T12:42:59;8.00;99.90
12720;DHT22;6424;48.520;11.228;2023-11-18T12:46:09;8.00;99.90
12720;DHT22;6424;48.520;11.228;2023-11-18T12:49:00;7.90;99.90
12720;DHT22;6424;48.520;11.228;2023-11-18T12:51:45;8.00;99.90
12720;DHT22;6424;48.520;11.228;2023-11-18T12:54:29;7.90;99.90
12720;DHT22;6424;48.520;11.228;2023-11-18T12:57:14;7.90;99.90
12720;DHT22;6424;48.520;11.228;2023-11-18T12:59:59;7.90;99.90
12720;DHT22;6424;48.520;11.228;2023-11-18T13:02:44;7.80;99.90
12720;DHT22;6424;48.520;11.228;2023-11-18T13:05:29;7.80;99.90
12720;DHT22;6424;48.520;11.228;2023-11-18T13:08:13;7.70;99.90
12720;DHT22;6424;48.520;11.228;2023-11-18T13:10:59;7.60;99.90
12720;DHT22;6424;48.520;11.228;2023-11-18T13:13:48;7.60;99.90
12720;DHT22;6424;48.520;11.228;2023-11-18T13:16:34;7.60;99.90
12720;DHT22;6424;48.520;11.228;2023-11-18T13:19:28;7.60;99.90
12720;DHT22;6424;48.520;11.228;2023-11-18T13:22:14;7.60;99.90
12720;DHT22;6424;48.520;11.228;2023-11-18T13:24:58;7.60;99.90
12720;DHT22;6424;48.520;11.228;2023-11-18T13:27:43;7.60;99.90
12720;DHT22;6424;48.520;11.228;2023-11-18T13:30:28;7.70;99.90
12720;DHT22;6424;48.520;11.228;2023-11-18T13:33:13;7.60;99.90
12720;DHT22;6424;48.520;11.228;2023-11-18T13:35:57;7.60;99.90
12720;DHT22;6424;48.520;11.228;2023-11-18T13:38:42;7.60;99.90
12720;DHT22;6424;48.520;11.228;2023-11-18T13:41:29;7.60;99.90
12720;DHT22;6424;48.520;11.228;2023-11-18T13:44:31;7.50;99.90
12720;DHT22;6424;48.520;11.228;2023-11-18T13:47:18;7.60;99.90
12720;DHT22;6424;48.520;11.228;2023-11-18T13:50:07;7.60;99.90
12720;DHT22;6424;48.520;11.228;2023-11-18T13:52:52;7.70;99.90
12720;DHT22;6424;48.520;11.228;2023-11-18T13:55:37;7.70;99.90
12720;DHT22;6424;48.520;11.228;2023-11-18T13:58:22;7.80;99.90
12720;DHT22;6424;48.520;11.228;2023-11-18T14:01:10;7.90;99.90
12720;DHT22;6424;48.520;11.228;2023-11-18T14:03:56;7.90;99.90
12720;DHT22;6424;48.520;11.228;2023-11-18T14:06:51;7.90;99.90
12720;DHT22;6424;48.520;11.228;2023-11-18T14:09:36;7.90;99.90
12720;DHT22;6424;48.520;11.228;2023-11-18T14:12:24;7.90;99.90
12720;DHT22;6424;48.520;11.228;2023-11-18T14:15:11;7.80;99.90
12720;DHT22;6424;48.520;11.228;2023-11-18T14:18:00;7.80;99.90
12720;DHT22;6424;48.520;11.228;2023-11-18T14:20:45;7.70;99.90
12720;DHT22;6424;48.520;11.228;2023-11-18T14:23:30;7.70;99.90
12720;DHT22;6424;48.520;11.228;2023-11-18T14:26:15;7.70;99.90
12720;DHT22;6424;48.520;11.228;2023-11-18T14:28:59;7.70;99.90
12720;DHT22;6424;48.520;11.228;2023-11-18T14:31:45;7.60;99.90
12720;DHT22;6424;48.520;11.228;2023-11-18T14:34:29;7.60;99.90
12720;DHT22;6424;48.520;11.228;2023-11-18T14:37:13;7.50;99.90
12720;DHT22;6424;48.520;11.228;2023-11-18T14:39:58;7.50;99.90
12720;DHT22;6424;48.520;11.228;2023-11-18T14:42:43;7.40;99.90
12720;DHT22;6424;48.520;11.228;2023-11-18T14:45:28;7.30;99.90
12720;DHT22;6424;48.520;11.228;2023-11-18T14:48:13;7.30;99.90
12720;DHT22;6424;48.520;11.228;2023-11-18T14:50:57;7.20;99.90
12720;DHT22;6424;48.520;11.228;2023-11-18T14:53:41;7.10;99.90
12720;DHT22;6424;48.520;11.228;2023-11-18T14:56:27;7.10;99.90
12720;DHT22;6424;48.520;11.228;2023-11-18T14:59:11;7.00;99.90
12720;DHT22;6424;48.520;11.228;2023-11-18T15:01:56;7.00;99.90
12720;DHT22;6424;48.520;11.228;2023-11-18T15:04:41;6.90;99.90
12720;DHT22;6424;48.520;11.228;2023-11-18T15:07:27;6.90;99.90
12720;DHT22;6424;48.520;11.228;2023-11-18T15:10:12;6.90;99.90
12720;DHT22;6424;48.520;11.228;2023-11-18T15:12:58;6.80;99.90
12720;DHT22;6424;48.520;11.228;2023-11-18T15:15:45;6.80;99.90
12720;DHT22;6424;48.520;11.228;2023-11-18T15:18:32;6.80;99.90
12720;DHT22;6424;48.520;11.228;2023-11-18T15:21:18;6.70;99.90
12720;DHT22;6424;48.520;11.228;2023-11-18T15:24:04;6.70;99.90
12720;DHT22;6424;48.520;11.228;2023-11-18T15:26:48;6.60;99.90
12720;DHT22;6424;48.520;11.228;2023-11-18T15:29:32;6.60;99.90
12720;DHT22;6424;48.520;11.228;2023-11-18T15:32:22;6.60;99.90
12720;DHT22;6424;48.520;11.228;2023-11-18T15:35:08;6.50;99.90
12720;DHT22;6424;48.520;11.228;2023-11-18T15:37:53;6.50;99.90
12720;DHT22;6424;48.520;11.228;2023-11-18T15:40:38;6.50;99.90
12720;DHT22;6424;48.520;11.228;2023-11-18T15:43:23;6.40;99.90
12720;DHT22;6424;48.520;11.228;2023-11-18T15:46:09;6.40;99.90
12720;DHT22;6424;48.520;11.228;2023-11-18T15:48:55;6.30;99.90
12720;DHT22;6424;48.520;11.228;2023-11-18T15:51:39;6.30;99.90
12720;DHT22;6424;48.520;11.228;2023-11-18T15:54:24;6.20;99.90
12720;DHT22;6424;48.520;11.228;2023-11-18T15:57:09;6.20;99.90
12720;DHT22;6424;48.520;11.228;2023-11-18T15:59:53;6.20;99.90
12720;DHT22;6424;48.520;11.228;2023-11-18T16:02:38;6.20;99.90
12720;DHT22;6424;48.520;11.228;2023-11-18T16:05:23;6.10;99.90
12720;DHT22;6424;48.520;11.228;2023-11-18T16:08:07;6.10;99.90
12720;DHT22;6424;48.520;11.228;2023-11-18T16:10:52;6.10;99.90
12720;DHT22;6424;48.520;11.228;2023-11-18T16:13:39;6.00;99.90
12720;DHT22;6424;48.520;11.228;2023-11-18T16:16:24;6.00;99.90
12720;DHT22;6424;48.520;11.228;2023-11-18T16:19:11;6.00;99.90
12720;DHT22;6424;48.520;11.228;2023-11-18T16:21:55;6.00;99.90
12720;DHT22;6424;48.520;11.228;2023-11-18T16:24:39;6.00;99.90
12720;DHT22;6424;48.520;11.228;2023-11-18T16:27:23;6.00;99.90
12720;DHT22;6424;48.520;11.228;2023-11-18T16:30:08;6.00;99.90
12720;DHT22;6424;48.520;11.228;2023-11-18T16:32:53;6.00;99.90
12720;DHT22;6424;48.520;11.228;2023-11-18T16:35:37;6.00;99.90
12720;DHT22;6424;48.520;11.228;2023-11-18T16:38:22;6.00;99.90
12720;DHT22;6424;48.520;11.228;2023-11-18T16:41:06;6.00;99.90
12720;DHT22;6424;48.520;11.228;2023-11-18T16:43:50;6.00;99.90
12720;DHT22;6424;48.520;11.228;2023-11-18T16:46:39;6.00;99.90
12720;DHT22;6424;48.520;11.228;2023-11-18T16:49:27;5.90;99.90
12720;DHT22;6424;48.520;11.228;2023-11-18T16:52:11;5.90;99.90
12720;DHT22;6424;48.520;11.228;2023-11-18T16:54:56;5.90;99.90
12720;DHT22;6424;48.520;11.228;2023-11-18T16:57:41;6.00;99.90
12720;DHT22;6424;48.520;11.228;2023-11-18T17:00:25;5.90;99.90
12720;DHT22;6424;48.520;11.228;2023-11-18T17:03:11;5.90;99.90
12720;DHT22;6424;48.520;11.228;2023-11-18T17:05:56;5.90;99.90
12720;DHT22;6424;48.520;11.228;2023-11-18T17:08:40;5.90;99.90
12720;DHT22;6424;48.520;11.228;2023-11-18T17:11:25;5.90;99.90
12720;DHT22;6424;48.520;11.228;2023-11-18T17:14:09;5.90;99.90
12720;DHT22;6424;48.520;11.228;2023-11-18T17:16:54;5.80;99.90
12720;DHT22;6424;48.520;11.228;2023-11-18T17:19:38;5.80;99.90
12720;DHT22;6424;48.520;11.228;2023-11-18T17:22:22;5.80;99.90
12720;DHT22;6424;48.520;11.228;2023-11-18T17:25:11;5.80;99.90
12720;DHT22;6424;48.520;11.228;2023-11-18T17:27:57;5.90;99.90
12720;DHT22;6424;48.520;11.228;2023-11-18T17:30:41;5.90;99.90
12720;DHT22;6424;48.520;11.228;2023-11-18T17:33:26;5.90;99.90
12720;DHT22;6424;48.520;11.228;2023-11-18T17:36:13;5.90;99.90
12720;DHT22;6424;48.520;11.228;2023-11-18T17:38:57;5.90;99.90
12720;DHT22;6424;48.520;11.228;2023-11-18T17:41:42;5.90;99.90
12720;DHT22;6424;48.520;11.228;2023-11-18T17:44:26;5.80;99.90
12720;DHT22;6424;48.520;11.228;2023-11-18T17:47:11;5.80;99.90
12720;DHT22;6424;48.520;11.228;2023-11-18T17:49:56;5.80;99.90
12720;DHT22;6424;48.520;11.228;2023-11-18T17:52:43;5.80;99.90
12720;DHT22;6424;48.520;11.228;2023-11-18T17:55:28;5.80;99.90
12720;DHT22;6424;48.520;11.228;2023-11-18T17:58:14;5.80;99.90
12720;DHT22;6424;48.520;11.228;2023-11-18T18:00:58;5.80;99.90
12720;DHT22;6424;48.520;11.228;2023-11-18T18:03:45;5.80;99.90
12720;DHT22;6424;48.520;11.228;2023-11-18T18:06:29;5.80;99.90